CheckWX is a tool to help pilots better visualize weather data.  It is not intended as a substitute for an official pre-flight weather briefing.

19:05:49 UTC

KSAA METAR
Shively Field Airport
Saratoga, Wyoming, USA
Current

11 mins ago

KSAA 211855Z AUTO 31003KT 10SM BKN027 BKN039 OVC060 M03/M06 A2998 RMK AO2
Observed
Nov-21 @ 18:55 UTC
Wind
  • 310° at 3 KTS
Visibility
10 SM
Flight Rules
MVFR
Cloud Levels
  • Broken at 2,700' AGL
  • Broken at 3,900' AGL
  • Overcast at 6,000' AGL
Temperature
-3°C / 27°F
Dewpoint
-6°C / 21°F
Humidity
80%
Altimeter
29.98" Hg
Pressure
1015.22 hPa
Previous

31 mins ago

KSAA 211835Z AUTO 32003KT 10SM OVC027 M03/M06 A2999 RMK AO2
Observed
Nov-21 @ 18:35 UTC
Wind
  • 320° at 3 KTS
Visibility
10 SM
Flight Rules
MVFR
Cloud Levels
  • Overcast at 2,700' AGL
Temperature
-3°C / 27°F
Dewpoint
-6°C / 21°F
Humidity
80%
Altimeter
29.99" Hg
Pressure
1015.62 hPa
Previous

51 mins ago

KSAA 211815Z AUTO 00000KT 10SM BKN025 OVC095 M03/M06 A3000 RMK AO2
Observed
Nov-21 @ 18:15 UTC
Visibility
10 SM
Flight Rules
MVFR
Cloud Levels
  • Broken at 2,500' AGL
  • Overcast at 9,500' AGL
Temperature
-3°C / 27°F
Dewpoint
-6°C / 21°F
Humidity
80%
Altimeter
30" Hg
Pressure
1015.92 hPa